sensor_id;sensor_type;location;lat;lon;timestamp;P1;durP1;ratioP1;P2;durP2;ratioP2
74328;SDS011;62745;51.060;13.786;2022-12-07T00:01:35;16.75;;;8.55;;
74328;SDS011;62745;51.060;13.786;2022-12-07T00:04:04;15.68;;;8.18;;
74328;SDS011;62745;51.060;13.786;2022-12-07T00:06:32;14.82;;;7.72;;
74328;SDS011;62745;51.060;13.786;2022-12-07T00:08:59;14.18;;;7.47;;
74328;SDS011;62745;51.060;13.786;2022-12-07T00:11:24;13.57;;;7.25;;
74328;SDS011;62745;51.060;13.786;2022-12-07T00:13:55;13.25;;;6.82;;
74328;SDS011;62745;51.060;13.786;2022-12-07T00:16:25;16.85;;;7.78;;
74328;SDS011;62745;51.060;13.786;2022-12-07T00:18:52;13.07;;;5.80;;
74328;SDS011;62745;51.060;13.786;2022-12-07T00:21:19;11.77;;;6.38;;
74328;SDS011;62745;51.060;13.786;2022-12-07T00:23:47;13.20;;;7.13;;
74328;SDS011;62745;51.060;13.786;2022-12-07T00:26:17;14.93;;;7.70;;
74328;SDS011;62745;51.060;13.786;2022-12-07T00:28:49;14.55;;;7.53;;
74328;SDS011;62745;51.060;13.786;2022-12-07T00:31:16;16.52;;;8.25;;
74328;SDS011;62745;51.060;13.786;2022-12-07T00:33:43;14.15;;;7.90;;
74328;SDS011;62745;51.060;13.786;2022-12-07T00:36:11;11.38;;;5.20;;
74328;SDS011;62745;51.060;13.786;2022-12-07T00:38:40;16.10;;;7.78;;
74328;SDS011;62745;51.060;13.786;2022-12-07T00:41:07;16.23;;;7.72;;
74328;SDS011;62745;51.060;13.786;2022-12-07T00:43:37;16.48;;;7.80;;
74328;SDS011;62745;51.060;13.786;2022-12-07T00:46:03;18.23;;;7.78;;
74328;SDS011;62745;51.060;13.786;2022-12-07T00:48:29;18.08;;;7.85;;
74328;SDS011;62745;51.060;13.786;2022-12-07T00:50:54;11.63;;;6.45;;
74328;SDS011;62745;51.060;13.786;2022-12-07T00:53:20;14.77;;;7.15;;
74328;SDS011;62745;51.060;13.786;2022-12-07T00:55:45;16.83;;;8.80;;
74328;SDS011;62745;51.060;13.786;2022-12-07T00:58:11;14.80;;;7.18;;
74328;SDS011;62745;51.060;13.786;2022-12-07T01:00:37;15.07;;;7.75;;
74328;SDS011;62745;51.060;13.786;2022-12-07T01:03:04;13.40;;;6.90;;
74328;SDS011;62745;51.060;13.786;2022-12-07T01:05:30;14.00;;;7.18;;
74328;SDS011;62745;51.060;13.786;2022-12-07T01:07:56;17.33;;;8.63;;
74328;SDS011;62745;51.060;13.786;2022-12-07T01:10:21;17.73;;;8.77;;
74328;SDS011;62745;51.060;13.786;2022-12-07T01:12:47;13.98;;;7.50;;
74328;SDS011;62745;51.060;13.786;2022-12-07T01:15:12;16.30;;;7.28;;
74328;SDS011;62745;51.060;13.786;2022-12-07T01:17:38;17.23;;;7.90;;
74328;SDS011;62745;51.060;13.786;2022-12-07T01:20:03;15.05;;;7.18;;
74328;SDS011;62745;51.060;13.786;2022-12-07T01:22:29;17.67;;;8.30;;
74328;SDS011;62745;51.060;13.786;2022-12-07T01:24:54;15.90;;;7.77;;
74328;SDS011;62745;51.060;13.786;2022-12-07T01:27:20;16.23;;;8.17;;
74328;SDS011;62745;51.060;13.786;2022-12-07T01:29:45;16.27;;;7.47;;
74328;SDS011;62745;51.060;13.786;2022-12-07T01:32:10;18.97;;;7.40;;
74328;SDS011;62745;51.060;13.786;2022-12-07T01:34:36;17.73;;;7.40;;
74328;SDS011;62745;51.060;13.786;2022-12-07T01:37:01;16.15;;;7.35;;
74328;SDS011;62745;51.060;13.786;2022-12-07T01:39:26;17.20;;;8.20;;
74328;SDS011;62745;51.060;13.786;2022-12-07T01:41:52;17.88;;;8.52;;
74328;SDS011;62745;51.060;13.786;2022-12-07T01:44:22;18.88;;;8.80;;
74328;SDS011;62745;51.060;13.786;2022-12-07T01:46:55;18.52;;;7.90;;
74328;SDS011;62745;51.060;13.786;2022-12-07T01:49:35;14.73;;;7.15;;
74328;SDS011;62745;51.060;13.786;2022-12-07T01:57:06;16.02;;;7.63;;
74328;SDS011;62745;51.060;13.786;2022-12-07T01:59:33;21.88;;;8.77;;
74328;SDS011;62745;51.060;13.786;2022-12-07T02:01:59;16.05;;;8.00;;
74328;SDS011;62745;51.060;13.786;2022-12-07T02:04:30;12.02;;;6.07;;
74328;SDS011;62745;51.060;13.786;2022-12-07T02:06:56;16.58;;;7.75;;
74328;SDS011;62745;51.060;13.786;2022-12-07T02:09:22;16.88;;;7.50;;
74328;SDS011;62745;51.060;13.786;2022-12-07T02:11:48;14.77;;;6.60;;
74328;SDS011;62745;51.060;13.786;2022-12-07T02:14:14;15.98;;;7.40;;
74328;SDS011;62745;51.060;13.786;2022-12-07T02:19:39;14.15;;;7.13;;
74328;SDS011;62745;51.060;13.786;2022-12-07T02:24:57;15.07;;;6.53;;
74328;SDS011;62745;51.060;13.786;2022-12-07T02:30:15;12.95;;;6.30;;
74328;SDS011;62745;51.060;13.786;2022-12-07T02:35:43;13.35;;;6.07;;
74328;SDS011;62745;51.060;13.786;2022-12-07T05:07:04;12.63;;;6.25;;
74328;SDS011;62745;51.060;13.786;2022-12-07T05:09:29;12.60;;;6.20;;
74328;SDS011;62745;51.060;13.786;2022-12-07T05:11:55;12.87;;;6.50;;
74328;SDS011;62745;51.060;13.786;2022-12-07T05:14:20;13.13;;;6.95;;
74328;SDS011;62745;51.060;13.786;2022-12-07T05:16:47;18.50;;;7.18;;
74328;SDS011;62745;51.060;13.786;2022-12-07T05:19:14;13.35;;;6.18;;
74328;SDS011;62745;51.060;13.786;2022-12-07T05:21:40;12.93;;;5.85;;
74328;SDS011;62745;51.060;13.786;2022-12-07T05:24:06;15.27;;;7.32;;
74328;SDS011;62745;51.060;13.786;2022-12-07T05:26:33;14.60;;;7.10;;
74328;SDS011;62745;51.060;13.786;2022-12-07T05:28:59;14.90;;;6.18;;
74328;SDS011;62745;51.060;13.786;2022-12-07T05:31:25;12.10;;;6.45;;
74328;SDS011;62745;51.060;13.786;2022-12-07T05:33:51;14.63;;;6.50;;
74328;SDS011;62745;51.060;13.786;2022-12-07T05:36:16;14.77;;;7.25;;
74328;SDS011;62745;51.060;13.786;2022-12-07T05:38:42;14.20;;;7.13;;
74328;SDS011;62745;51.060;13.786;2022-12-07T05:41:07;12.90;;;5.97;;
74328;SDS011;62745;51.060;13.786;2022-12-07T05:43:53;17.48;;;6.20;;
74328;SDS011;62745;51.060;13.786;2022-12-07T05:46:19;14.05;;;6.53;;
74328;SDS011;62745;51.060;13.786;2022-12-07T05:48:44;11.85;;;5.93;;
74328;SDS011;62745;51.060;13.786;2022-12-07T05:51:10;15.20;;;6.25;;
74328;SDS011;62745;51.060;13.786;2022-12-07T05:53:35;13.83;;;6.47;;
74328;SDS011;62745;51.060;13.786;2022-12-07T05:56:01;14.60;;;6.17;;
74328;SDS011;62745;51.060;13.786;2022-12-07T05:58:26;11.77;;;5.70;;
74328;SDS011;62745;51.060;13.786;2022-12-07T06:01:10;11.40;;;6.18;;
74328;SDS011;62745;51.060;13.786;2022-12-07T06:03:35;13.10;;;6.37;;
74328;SDS011;62745;51.060;13.786;2022-12-07T06:06:00;11.73;;;5.97;;
74328;SDS011;62745;51.060;13.786;2022-12-07T06:08:26;12.80;;;5.37;;
74328;SDS011;62745;51.060;13.786;2022-12-07T06:10:51;11.37;;;5.23;;
74328;SDS011;62745;51.060;13.786;2022-12-07T06:13:36;9.02;;;4.78;;
74328;SDS011;62745;51.060;13.786;2022-12-07T06:16:01;10.47;;;5.00;;
74328;SDS011;62745;51.060;13.786;2022-12-07T06:18:27;11.27;;;5.47;;
74328;SDS011;62745;51.060;13.786;2022-12-07T06:20:52;9.97;;;5.03;;
74328;SDS011;62745;51.060;13.786;2022-12-07T06:23:17;10.00;;;4.87;;
74328;SDS011;62745;51.060;13.786;2022-12-07T06:25:45;10.87;;;4.90;;
74328;SDS011;62745;51.060;13.786;2022-12-07T06:28:10;10.18;;;5.43;;
74328;SDS011;62745;51.060;13.786;2022-12-07T06:30:36;11.37;;;4.13;;
74328;SDS011;62745;51.060;13.786;2022-12-07T06:33:01;7.00;;;3.50;;
74328;SDS011;62745;51.060;13.786;2022-12-07T06:35:26;6.70;;;3.30;;
74328;SDS011;62745;51.060;13.786;2022-12-07T06:37:51;7.80;;;3.67;;
74328;SDS011;62745;51.060;13.786;2022-12-07T06:40:17;7.50;;;3.70;;
74328;SDS011;62745;51.060;13.786;2022-12-07T06:42:42;5.17;;;2.90;;
74328;SDS011;62745;51.060;13.786;2022-12-07T06:45:07;7.83;;;3.80;;
74328;SDS011;62745;51.060;13.786;2022-12-07T06:47:36;9.45;;;3.83;;
74328;SDS011;62745;51.060;13.786;2022-12-07T06:50:01;8.15;;;4.05;;
74328;SDS011;62745;51.060;13.786;2022-12-07T06:52:30;6.95;;;2.90;;
74328;SDS011;62745;51.060;13.786;2022-12-07T06:54:58;7.28;;;3.78;;
74328;SDS011;62745;51.060;13.786;2022-12-07T06:57:24;9.68;;;4.40;;
74328;SDS011;62745;51.060;13.786;2022-12-07T06:59:50;6.55;;;3.28;;
74328;SDS011;62745;51.060;13.786;2022-12-07T07:02:18;6.88;;;3.72;;
74328;SDS011;62745;51.060;13.786;2022-12-07T07:04:43;7.25;;;4.22;;
74328;SDS011;62745;51.060;13.786;2022-12-07T07:07:08;8.95;;;4.15;;
74328;SDS011;62745;51.060;13.786;2022-12-07T07:09:34;7.75;;;3.55;;
74328;SDS011;62745;51.060;13.786;2022-12-07T07:11:59;6.97;;;4.07;;
74328;SDS011;62745;51.060;13.786;2022-12-07T07:14:24;7.77;;;4.03;;
74328;SDS011;62745;51.060;13.786;2022-12-07T07:16:50;6.33;;;2.93;;
74328;SDS011;62745;51.060;13.786;2022-12-07T07:19:15;9.10;;;5.03;;
74328;SDS011;62745;51.060;13.786;2022-12-07T07:21:40;8.43;;;4.82;;
74328;SDS011;62745;51.060;13.786;2022-12-07T07:24:06;8.27;;;4.33;;
74328;SDS011;62745;51.060;13.786;2022-12-07T07:26:34;9.13;;;4.72;;
74328;SDS011;62745;51.060;13.786;2022-12-07T07:28:59;8.73;;;4.60;;
74328;SDS011;62745;51.060;13.786;2022-12-07T07:31:25;9.80;;;5.05;;
74328;SDS011;62745;51.060;13.786;2022-12-07T07:33:50;10.63;;;5.97;;
74328;SDS011;62745;51.060;13.786;2022-12-07T07:36:18;10.63;;;5.35;;
74328;SDS011;62745;51.060;13.786;2022-12-07T07:38:43;9.63;;;5.67;;
74328;SDS011;62745;51.060;13.786;2022-12-07T07:41:09;10.52;;;5.53;;
74328;SDS011;62745;51.060;13.786;2022-12-07T07:43:34;10.33;;;5.90;;
74328;SDS011;62745;51.060;13.786;2022-12-07T07:46:02;9.97;;;5.17;;
74328;SDS011;62745;51.060;13.786;2022-12-07T07:48:27;12.38;;;5.25;;
74328;SDS011;62745;51.060;13.786;2022-12-07T07:50:52;10.43;;;4.73;;
74328;SDS011;62745;51.060;13.786;2022-12-07T07:53:17;10.17;;;5.17;;
74328;SDS011;62745;51.060;13.786;2022-12-07T07:55:52;8.60;;;5.40;;
74328;SDS011;62745;51.060;13.786;2022-12-07T07:58:18;7.53;;;3.83;;
74328;SDS011;62745;51.060;13.786;2022-12-07T08:00:46;8.82;;;4.75;;
74328;SDS011;62745;51.060;13.786;2022-12-07T08:03:11;13.37;;;6.30;;
74328;SDS011;62745;51.060;13.786;2022-12-07T08:05:37;9.00;;;4.80;;
74328;SDS011;62745;51.060;13.786;2022-12-07T08:08:02;9.02;;;4.95;;
74328;SDS011;62745;51.060;13.786;2022-12-07T08:10:28;10.00;;;6.13;;
74328;SDS011;62745;51.060;13.786;2022-12-07T08:12:53;9.50;;;5.53;;
74328;SDS011;62745;51.060;13.786;2022-12-07T08:15:39;9.85;;;5.28;;
74328;SDS011;62745;51.060;13.786;2022-12-07T08:18:06;10.50;;;5.93;;
74328;SDS011;62745;51.060;13.786;2022-12-07T08:20:32;11.38;;;5.95;;
74328;SDS011;62745;51.060;13.786;2022-12-07T08:22:59;11.88;;;5.90;;
74328;SDS011;62745;51.060;13.786;2022-12-07T08:25:31;10.35;;;5.28;;
74328;SDS011;62745;51.060;13.786;2022-12-07T08:27:56;11.27;;;6.10;;
74328;SDS011;62745;51.060;13.786;2022-12-07T08:30:21;10.23;;;5.90;;
74328;SDS011;62745;51.060;13.786;2022-12-07T08:32:47;11.18;;;5.80;;
74328;SDS011;62745;51.060;13.786;2022-12-07T08:35:16;12.50;;;6.13;;
74328;SDS011;62745;51.060;13.786;2022-12-07T08:37:41;12.43;;;6.40;;
74328;SDS011;62745;51.060;13.786;2022-12-07T08:40:07;10.55;;;6.22;;
74328;SDS011;62745;51.060;13.786;2022-12-07T08:42:34;10.73;;;5.32;;
74328;SDS011;62745;51.060;13.786;2022-12-07T08:45:05;11.18;;;5.68;;
74328;SDS011;62745;51.060;13.786;2022-12-07T08:47:32;10.85;;;6.18;;
74328;SDS011;62745;51.060;13.786;2022-12-07T08:49:58;11.25;;;6.45;;
74328;SDS011;62745;51.060;13.786;2022-12-07T08:52:28;10.63;;;5.28;;
74328;SDS011;62745;51.060;13.786;2022-12-07T08:54:57;11.50;;;6.40;;
74328;SDS011;62745;51.060;13.786;2022-12-07T08:57:24;9.68;;;5.35;;
74328;SDS011;62745;51.060;13.786;2022-12-07T08:59:52;10.77;;;5.90;;
74328;SDS011;62745;51.060;13.786;2022-12-07T09:02:17;10.30;;;5.70;;
74328;SDS011;62745;51.060;13.786;2022-12-07T09:04:42;11.55;;;5.95;;
74328;SDS011;62745;51.060;13.786;2022-12-07T09:07:08;9.33;;;5.67;;
74328;SDS011;62745;51.060;13.786;2022-12-07T09:09:33;9.57;;;5.03;;
74328;SDS011;62745;51.060;13.786;2022-12-07T09:12:02;10.07;;;4.97;;
74328;SDS011;62745;51.060;13.786;2022-12-07T09:14:27;10.50;;;5.15;;
74328;SDS011;62745;51.060;13.786;2022-12-07T09:16:53;11.93;;;5.20;;
74328;SDS011;62745;51.060;13.786;2022-12-07T09:19:19;10.75;;;5.55;;
74328;SDS011;62745;51.060;13.786;2022-12-07T09:21:47;11.20;;;5.90;;
74328;SDS011;62745;51.060;13.786;2022-12-07T09:24:13;11.13;;;5.07;;
74328;SDS011;62745;51.060;13.786;2022-12-07T09:26:38;9.50;;;4.97;;
74328;SDS011;62745;51.060;13.786;2022-12-07T09:29:05;11.02;;;4.65;;
74328;SDS011;62745;51.060;13.786;2022-12-07T09:31:35;8.45;;;4.43;;
74328;SDS011;62745;51.060;13.786;2022-12-07T09:34:08;11.02;;;5.00;;
74328;SDS011;62745;51.060;13.786;2022-12-07T09:36:33;8.20;;;4.50;;
74328;SDS011;62745;51.060;13.786;2022-12-07T09:38:59;9.43;;;4.87;;
74328;SDS011;62745;51.060;13.786;2022-12-07T09:41:25;9.65;;;4.72;;
74328;SDS011;62745;51.060;13.786;2022-12-07T09:43:53;12.60;;;4.82;;
74328;SDS011;62745;51.060;13.786;2022-12-07T09:46:29;10.27;;;4.65;;
74328;SDS011;62745;51.060;13.786;2022-12-07T09:49:01;7.25;;;3.38;;
74328;SDS011;62745;51.060;13.786;2022-12-07T09:51:26;8.90;;;4.80;;
74328;SDS011;62745;51.060;13.786;2022-12-07T09:53:52;11.37;;;4.00;;
74328;SDS011;62745;51.060;13.786;2022-12-07T09:56:21;7.18;;;3.60;;
74328;SDS011;62745;51.060;13.786;2022-12-07T09:58:47;8.63;;;3.95;;
74328;SDS011;62745;51.060;13.786;2022-12-07T10:01:15;10.23;;;4.95;;
74328;SDS011;62745;51.060;13.786;2022-12-07T10:03:45;8.18;;;4.20;;
74328;SDS011;62745;51.060;13.786;2022-12-07T10:06:25;10.30;;;4.20;;
74328;SDS011;62745;51.060;13.786;2022-12-07T10:09:20;9.32;;;3.75;;
74328;SDS011;62745;51.060;13.786;2022-12-07T10:14:35;7.13;;;3.55;;
74328;SDS011;62745;51.060;13.786;2022-12-07T10:17:50;8.68;;;4.60;;
74328;SDS011;62745;51.060;13.786;2022-12-07T10:20:21;8.80;;;3.80;;
74328;SDS011;62745;51.060;13.786;2022-12-07T10:23:11;8.07;;;4.00;;
74328;SDS011;62745;51.060;13.786;2022-12-07T10:25:40;9.07;;;3.60;;
74328;SDS011;62745;51.060;13.786;2022-12-07T10:30:45;8.02;;;4.38;;
74328;SDS011;62745;51.060;13.786;2022-12-07T10:33:59;8.80;;;3.53;;
74328;SDS011;62745;51.060;13.786;2022-12-07T10:36:36;9.23;;;4.00;;
74328;SDS011;62745;51.060;13.786;2022-12-07T10:39:24;8.80;;;4.22;;
74328;SDS011;62745;51.060;13.786;2022-12-07T10:42:09;6.97;;;3.28;;
74328;SDS011;62745;51.060;13.786;2022-12-07T10:44:44;8.50;;;4.30;;
74328;SDS011;62745;51.060;13.786;2022-12-07T10:52:43;9.15;;;4.18;;
74328;SDS011;62745;51.060;13.786;2022-12-07T10:55:26;8.23;;;3.88;;
74328;SDS011;62745;51.060;13.786;2022-12-07T11:12:57;9.25;;;3.83;;
74328;SDS011;62745;51.060;13.786;2022-12-07T11:18:26;11.07;;;4.30;;
74328;SDS011;62745;51.060;13.786;2022-12-07T11:29:04;8.43;;;4.00;;
74328;SDS011;62745;51.060;13.786;2022-12-07T11:37:48;10.70;;;4.32;;
74328;SDS011;62745;51.060;13.786;2022-12-07T11:40:33;5.85;;;3.13;;
74328;SDS011;62745;51.060;13.786;2022-12-07T11:45:46;8.75;;;4.20;;
74328;SDS011;62745;51.060;13.786;2022-12-07T11:48:24;8.48;;;3.83;;
74328;SDS011;62745;51.060;13.786;2022-12-07T11:50:57;10.40;;;5.13;;
74328;SDS011;62745;51.060;13.786;2022-12-07T11:53:26;8.75;;;4.75;;
74328;SDS011;62745;51.060;13.786;2022-12-07T11:55:58;11.50;;;5.72;;
74328;SDS011;62745;51.060;13.786;2022-12-07T11:58:39;12.60;;;6.07;;
74328;SDS011;62745;51.060;13.786;2022-12-07T12:04:01;13.00;;;6.05;;
74328;SDS011;62745;51.060;13.786;2022-12-07T12:06:40;14.05;;;6.05;;
74328;SDS011;62745;51.060;13.786;2022-12-07T12:17:50;13.43;;;6.82;;
74328;SDS011;62745;51.060;13.786;2022-12-07T12:20:48;14.25;;;7.03;;
74328;SDS011;62745;51.060;13.786;2022-12-07T12:23:26;14.13;;;7.15;;
74328;SDS011;62745;51.060;13.786;2022-12-07T12:25:57;14.25;;;5.93;;
74328;SDS011;62745;51.060;13.786;2022-12-07T12:28:29;13.85;;;5.45;;
74328;SDS011;62745;51.060;13.786;2022-12-07T12:31:34;13.45;;;6.28;;
74328;SDS011;62745;51.060;13.786;2022-12-07T12:34:03;15.57;;;7.38;;
74328;SDS011;62745;51.060;13.786;2022-12-07T12:36:48;13.02;;;7.18;;
74328;SDS011;62745;51.060;13.786;2022-12-07T12:39:15;14.37;;;6.80;;
74328;SDS011;62745;51.060;13.786;2022-12-07T12:46:59;8.70;;;4.38;;
74328;SDS011;62745;51.060;13.786;2022-12-07T12:49:33;7.28;;;3.85;;
74328;SDS011;62745;51.060;13.786;2022-12-07T12:54:29;6.78;;;2.83;;
74328;SDS011;62745;51.060;13.786;2022-12-07T13:15:38;7.22;;;1.90;;
74328;SDS011;62745;51.060;13.786;2022-12-07T13:23:19;6.90;;;2.42;;
74328;SDS011;62745;51.060;13.786;2022-12-07T13:28:26;5.00;;;2.33;;
74328;SDS011;62745;51.060;13.786;2022-12-07T13:31:10;4.65;;;2.50;;
74328;SDS011;62745;51.060;13.786;2022-12-07T13:33:44;4.88;;;2.60;;
74328;SDS011;62745;51.060;13.786;2022-12-07T13:36:16;6.55;;;3.33;;
74328;SDS011;62745;51.060;13.786;2022-12-07T13:38:55;6.78;;;3.50;;
74328;SDS011;62745;51.060;13.786;2022-12-07T13:41:23;6.70;;;3.28;;
74328;SDS011;62745;51.060;13.786;2022-12-07T13:46:41;8.27;;;3.72;;
74328;SDS011;62745;51.060;13.786;2022-12-07T13:49:21;9.30;;;3.72;;
74328;SDS011;62745;51.060;13.786;2022-12-07T13:51:50;6.55;;;3.30;;
74328;SDS011;62745;51.060;13.786;2022-12-07T13:54:17;8.23;;;4.07;;
74328;SDS011;62745;51.060;13.786;2022-12-07T13:56:43;8.10;;;4.10;;
74328;SDS011;62745;51.060;13.786;2022-12-07T13:59:16;11.65;;;4.45;;
74328;SDS011;62745;51.060;13.786;2022-12-07T14:01:45;6.22;;;3.30;;
74328;SDS011;62745;51.060;13.786;2022-12-07T14:04:16;7.88;;;4.28;;
74328;SDS011;62745;51.060;13.786;2022-12-07T14:06:56;6.68;;;3.90;;
74328;SDS011;62745;51.060;13.786;2022-12-07T14:09:25;9.15;;;4.60;;
74328;SDS011;62745;51.060;13.786;2022-12-07T14:11:52;15.23;;;4.90;;
74328;SDS011;62745;51.060;13.786;2022-12-07T14:14:21;11.07;;;4.45;;
74328;SDS011;62745;51.060;13.786;2022-12-07T14:16:56;8.45;;;4.25;;
74328;SDS011;62745;51.060;13.786;2022-12-07T14:19:44;15.20;;;5.78;;
74328;SDS011;62745;51.060;13.786;2022-12-07T14:22:18;11.18;;;5.28;;
74328;SDS011;62745;51.060;13.786;2022-12-07T14:27:39;12.18;;;5.38;;
74328;SDS011;62745;51.060;13.786;2022-12-07T14:30:15;10.32;;;5.32;;
74328;SDS011;62745;51.060;13.786;2022-12-07T14:32:42;10.50;;;5.32;;
74328;SDS011;62745;51.060;13.786;2022-12-07T14:35:13;13.00;;;5.32;;
74328;SDS011;62745;51.060;13.786;2022-12-07T14:37:40;10.60;;;5.20;;
74328;SDS011;62745;51.060;13.786;2022-12-07T14:40:07;11.40;;;5.10;;
74328;SDS011;62745;51.060;13.786;2022-12-07T14:42:37;8.38;;;3.60;;
74328;SDS011;62745;51.060;13.786;2022-12-07T14:45:03;11.85;;;4.78;;
74328;SDS011;62745;51.060;13.786;2022-12-07T14:47:28;10.25;;;5.25;;
74328;SDS011;62745;51.060;13.786;2022-12-07T14:49:53;10.67;;;5.47;;
74328;SDS011;62745;51.060;13.786;2022-12-07T14:52:26;13.80;;;5.60;;
74328;SDS011;62745;51.060;13.786;2022-12-07T14:54:54;12.10;;;5.40;;
74328;SDS011;62745;51.060;13.786;2022-12-07T14:57:20;12.68;;;5.05;;
74328;SDS011;62745;51.060;13.786;2022-12-07T14:59:46;8.57;;;5.18;;
74328;SDS011;62745;51.060;13.786;2022-12-07T15:02:12;9.03;;;4.60;;
74328;SDS011;62745;51.060;13.786;2022-12-07T15:04:38;9.95;;;4.20;;
74328;SDS011;62745;51.060;13.786;2022-12-07T15:07:05;8.35;;;4.07;;
74328;SDS011;62745;51.060;13.786;2022-12-07T15:09:34;6.75;;;4.53;;
74328;SDS011;62745;51.060;13.786;2022-12-07T15:12:00;8.80;;;4.97;;
74328;SDS011;62745;51.060;13.786;2022-12-07T15:14:25;9.68;;;4.38;;
74328;SDS011;62745;51.060;13.786;2022-12-07T15:16:50;9.57;;;4.15;;
74328;SDS011;62745;51.060;13.786;2022-12-07T15:19:22;9.50;;;4.27;;
74328;SDS011;62745;51.060;13.786;2022-12-07T15:21:50;12.10;;;4.70;;
74328;SDS011;62745;51.060;13.786;2022-12-07T15:24:16;12.10;;;4.45;;
74328;SDS011;62745;51.060;13.786;2022-12-07T15:26:41;9.18;;;4.10;;
74328;SDS011;62745;51.060;13.786;2022-12-07T15:29:07;9.23;;;3.25;;
74328;SDS011;62745;51.060;13.786;2022-12-07T15:31:40;7.85;;;2.65;;
74328;SDS011;62745;51.060;13.786;2022-12-07T15:34:05;7.82;;;2.67;;
74328;SDS011;62745;51.060;13.786;2022-12-07T15:36:31;11.67;;;3.47;;
74328;SDS011;62745;51.060;13.786;2022-12-07T15:38:58;5.95;;;2.50;;
74328;SDS011;62745;51.060;13.786;2022-12-07T15:41:23;6.07;;;2.72;;
74328;SDS011;62745;51.060;13.786;2022-12-07T15:43:49;6.97;;;2.80;;
74328;SDS011;62745;51.060;13.786;2022-12-07T15:46:35;9.00;;;2.90;;
74328;SDS011;62745;51.060;13.786;2022-12-07T15:49:03;12.70;;;4.75;;
74328;SDS011;62745;51.060;13.786;2022-12-07T15:51:29;10.88;;;4.18;;
74328;SDS011;62745;51.060;13.786;2022-12-07T15:53:54;8.43;;;4.13;;
74328;SDS011;62745;51.060;13.786;2022-12-07T15:56:22;10.35;;;5.35;;
74328;SDS011;62745;51.060;13.786;2022-12-07T15:58:47;22.52;;;10.50;;
74328;SDS011;62745;51.060;13.786;2022-12-07T16:01:13;20.17;;;9.20;;
74328;SDS011;62745;51.060;13.786;2022-12-07T16:03:39;13.13;;;6.00;;
74328;SDS011;62745;51.060;13.786;2022-12-07T16:06:05;23.33;;;13.40;;
74328;SDS011;62745;51.060;13.786;2022-12-07T16:08:31;15.48;;;8.70;;
74328;SDS011;62745;51.060;13.786;2022-12-07T16:10:56;27.88;;;12.40;;
74328;SDS011;62745;51.060;13.786;2022-12-07T16:13:21;14.17;;;8.00;;
74328;SDS011;62745;51.060;13.786;2022-12-07T16:15:47;7.28;;;4.28;;
74328;SDS011;62745;51.060;13.786;2022-12-07T16:18:12;8.03;;;3.73;;
74328;SDS011;62745;51.060;13.786;2022-12-07T16:20:37;7.27;;;3.17;;
74328;SDS011;62745;51.060;13.786;2022-12-07T16:23:03;6.80;;;4.05;;
74328;SDS011;62745;51.060;13.786;2022-12-07T16:25:28;20.80;;;10.88;;
74328;SDS011;62745;51.060;13.786;2022-12-07T16:27:54;15.93;;;8.33;;
74328;SDS011;62745;51.060;13.786;2022-12-07T16:30:19;10.45;;;5.10;;
74328;SDS011;62745;51.060;13.786;2022-12-07T16:32:44;9.90;;;6.10;;
74328;SDS011;62745;51.060;13.786;2022-12-07T16:35:10;7.87;;;4.63;;
74328;SDS011;62745;51.060;13.786;2022-12-07T16:37:36;7.72;;;4.60;;
74328;SDS011;62745;51.060;13.786;2022-12-07T16:40:02;8.35;;;4.00;;
74328;SDS011;62745;51.060;13.786;2022-12-07T16:42:31;11.23;;;5.47;;
74328;SDS011;62745;51.060;13.786;2022-12-07T16:44:57;9.70;;;3.65;;
74328;SDS011;62745;51.060;13.786;2022-12-07T16:47:22;8.30;;;3.90;;
74328;SDS011;62745;51.060;13.786;2022-12-07T16:49:47;9.77;;;4.10;;
74328;SDS011;62745;51.060;13.786;2022-12-07T16:52:20;10.18;;;4.30;;
74328;SDS011;62745;51.060;13.786;2022-12-07T16:54:46;10.82;;;4.35;;
74328;SDS011;62745;51.060;13.786;2022-12-07T16:57:13;9.15;;;4.00;;
74328;SDS011;62745;51.060;13.786;2022-12-07T16:59:38;8.97;;;3.80;;
74328;SDS011;62745;51.060;13.786;2022-12-07T17:02:03;7.90;;;3.63;;
74328;SDS011;62745;51.060;13.786;2022-12-07T17:04:31;8.15;;;3.45;;
74328;SDS011;62745;51.060;13.786;2022-12-07T17:06:56;6.03;;;2.95;;
74328;SDS011;62745;51.060;13.786;2022-12-07T17:09:23;8.35;;;3.63;;
74328;SDS011;62745;51.060;13.786;2022-12-07T17:11:48;6.67;;;3.10;;
74328;SDS011;62745;51.060;13.786;2022-12-07T17:14:13;9.13;;;3.03;;
74328;SDS011;62745;51.060;13.786;2022-12-07T17:16:57;9.82;;;3.30;;
74328;SDS011;62745;51.060;13.786;2022-12-07T17:19:23;4.47;;;2.20;;
74328;SDS011;62745;51.060;13.786;2022-12-07T17:21:48;5.80;;;2.30;;
74328;SDS011;62745;51.060;13.786;2022-12-07T17:24:15;8.98;;;2.70;;
74328;SDS011;62745;51.060;13.786;2022-12-07T17:26:41;6.25;;;2.13;;
74328;SDS011;62745;51.060;13.786;2022-12-07T17:29:08;5.97;;;2.33;;
74328;SDS011;62745;51.060;13.786;2022-12-07T17:31:35;6.15;;;2.35;;
74328;SDS011;62745;51.060;13.786;2022-12-07T17:34:01;7.00;;;2.03;;
74328;SDS011;62745;51.060;13.786;2022-12-07T17:36:28;4.05;;;2.38;;
74328;SDS011;62745;51.060;13.786;2022-12-07T17:38:55;4.90;;;2.17;;
74328;SDS011;62745;51.060;13.786;2022-12-07T17:41:25;4.65;;;2.47;;
74328;SDS011;62745;51.060;13.786;2022-12-07T17:44:11;5.53;;;1.92;;
74328;SDS011;62745;51.060;13.786;2022-12-07T17:46:39;5.07;;;2.40;;
74328;SDS011;62745;51.060;13.786;2022-12-07T17:49:05;7.95;;;2.50;;
74328;SDS011;62745;51.060;13.786;2022-12-07T17:51:31;6.30;;;2.78;;
74328;SDS011;62745;51.060;13.786;2022-12-07T17:54:16;7.15;;;2.80;;
74328;SDS011;62745;51.060;13.786;2022-12-07T17:56:41;6.05;;;2.55;;
74328;SDS011;62745;51.060;13.786;2022-12-07T17:59:07;6.78;;;3.10;;
74328;SDS011;62745;51.060;13.786;2022-12-07T18:01:38;3.97;;;2.10;;
74328;SDS011;62745;51.060;13.786;2022-12-07T18:04:05;7.07;;;2.53;;
74328;SDS011;62745;51.060;13.786;2022-12-07T18:06:31;9.98;;;3.42;;
74328;SDS011;62745;51.060;13.786;2022-12-07T18:08:57;4.70;;;2.05;;
74328;SDS011;62745;51.060;13.786;2022-12-07T18:11:23;5.57;;;2.30;;
74328;SDS011;62745;51.060;13.786;2022-12-07T18:13:48;4.63;;;2.60;;
74328;SDS011;62745;51.060;13.786;2022-12-07T18:16:15;9.15;;;2.90;;
74328;SDS011;62745;51.060;13.786;2022-12-07T18:18:46;6.13;;;2.30;;
74328;SDS011;62745;51.060;13.786;2022-12-07T18:21:15;7.30;;;2.70;;
74328;SDS011;62745;51.060;13.786;2022-12-07T18:23:42;10.05;;;3.25;;
74328;SDS011;62745;51.060;13.786;2022-12-07T18:26:08;5.63;;;2.75;;
74328;SDS011;62745;51.060;13.786;2022-12-07T18:28:35;8.00;;;2.85;;
74328;SDS011;62745;51.060;13.786;2022-12-07T18:31:01;10.88;;;3.00;;
74328;SDS011;62745;51.060;13.786;2022-12-07T18:33:26;10.38;;;3.42;;
74328;SDS011;62745;51.060;13.786;2022-12-07T18:35:52;7.57;;;2.22;;
74328;SDS011;62745;51.060;13.786;2022-12-07T18:38:17;4.67;;;2.03;;
74328;SDS011;62745;51.060;13.786;2022-12-07T18:40:43;4.72;;;1.83;;
74328;SDS011;62745;51.060;13.786;2022-12-07T18:43:10;4.78;;;2.38;;
74328;SDS011;62745;51.060;13.786;2022-12-07T18:45:36;4.00;;;1.65;;
74328;SDS011;62745;51.060;13.786;2022-12-07T18:48:03;5.22;;;2.42;;
74328;SDS011;62745;51.060;13.786;2022-12-07T18:50:29;6.85;;;2.45;;
74328;SDS011;62745;51.060;13.786;2022-12-07T18:52:58;5.63;;;2.22;;
74328;SDS011;62745;51.060;13.786;2022-12-07T18:55:25;5.43;;;2.30;;
74328;SDS011;62745;51.060;13.786;2022-12-07T18:57:52;5.18;;;2.70;;
74328;SDS011;62745;51.060;13.786;2022-12-07T19:00:18;6.68;;;3.00;;